MUCM/CMW METAR and TAF weather

Enter ICAO airport designator
Station Type Date Time Source
MUCM METAR 2019/10/23 02:50 UTC NOAA

MUCM 230250Z 04006KT 9000 FEW020 25/25 Q1015


Station Type Date Time Source
MUCM Decoded METAR 2019/10/23 02:50 UTC NOAA

Camaguey Aeropuerto, Cuba (MUCM) 21-25N 077-51W 118M
Oct 22, 2019 - 10:50 PM EDT / 2019.10.23 0250 UTC
Wind: from the NE (040 degrees) at 7 MPH (6 KT):0
Visibility: 5 mile(s):0
Sky conditions: mostly clear
Temperature: 77 F (25 C)
Dew Point: 77 F (25 C)
Relative Humidity: 100%
Pressure (altimeter): 29.97 in. Hg (1015 hPa)
ob: MUCM 230250Z 04006KT 9000 FEW020 25/25 Q1015
cycle: 3

Station Type Date Time Source
MUCM TAF 2019/10/22 18:03 UTC NOAA

TAF MUCM 221700Z 2218/2318 06008KT 9000 SCT020
BECMG 2301/2303 VRB03KT
BECMG 2315/2317 06008KT

Example: see airport list